Time;durP1;ratioP1;P1;durP2;ratioP2;P2;SDS_P1;SDS_P2;PMS_P1;PMS_P2;Temp;Humidity;BMP_temperature;BMP_pressure;BME280_temperature;BME280_humidity;BME280_pressure;Samples;Min_cycle;Max_cycle;Signal;HPM_P1;HPM_P2
2023/08/15 00:01:44;;;;;;;37.55;16.67;;;;;;;19.09;81.77;99988.09;4853039;29;20137;-94
2023/08/15 00:04:19;;;;;;;34.17;16.40;;;;;;;18.87;82.04;99959.78;4897190;29;20059;-93
2023/08/15 00:06:48;;;;;;;33.35;15.73;;;;;;;19.34;81.94;100042.25;4881532;29;20068;-93
2023/08/15 00:09:14;;;;;;;29.60;14.97;;;;;;;19.10;82.21;100006.31;4908653;29;20052;-95
2023/08/15 00:11:43;;;;;;;19.65;11.65;;;;;;;18.86;82.02;99971.22;4887532;29;20135;-96
2023/08/15 00:14:21;;;;;;;22.63;12.60;;;;;;;19.18;81.69;100003.41;4897424;29;20040;-94
2023/08/15 00:16:47;;;;;;;28.90;13.07;;;;;;;19.45;80.68;100048.91;4889267;29;20327;-96
2023/08/15 00:19:37;;;;;;;26.67;12.15;;;;;;;19.30;80.68;100018.34;4920044;29;20036;-92
2023/08/15 00:22:09;;;;;;;22.00;11.57;;;;;;;19.45;80.79;100034.22;4857708;29;20060;-94
2023/08/15 00:24:36;;;;;;;27.58;12.35;;;;;;;19.11;80.88;99983.00;4862409;29;20424;-94
2023/08/15 00:27:02;;;;;;;19.83;10.27;;;;;;;19.07;81.08;99980.13;4853549;29;20049;-93
2023/08/15 00:29:28;;;;;;;19.85;10.80;;;;;;;19.11;80.86;99983.81;4835167;29;20062;-94
2023/08/15 00:31:54;;;;;;;19.98;9.98;;;;;;;19.41;80.78;100027.78;4855647;29;20086;-94
2023/08/15 00:34:20;;;;;;;23.00;11.43;;;;;;;19.15;80.95;99990.25;4872238;29;20072;-94
2023/08/15 00:36:47;;;;;;;18.60;10.48;;;;;;;19.46;80.70;100024.75;4857519;29;20097;-94
2023/08/15 00:39:13;;;;;;;26.47;11.73;;;;;;;19.17;80.64;99996.25;4859261;29;20037;-95
2023/08/15 00:41:39;;;;;;;24.35;10.55;;;;;;;19.34;80.72;100014.53;4861872;29;20111;-94
2023/08/15 00:44:05;;;;;;;35.93;12.97;;;;;;;19.15;80.08;99990.25;4854544;29;20136;-93
2023/08/15 00:46:31;;;;;;;23.13;11.60;;;;;;;19.41;80.22;100028.59;4855153;29;20050;-93
2023/08/15 00:48:58;;;;;;;22.40;12.02;;;;;;;19.22;80.11;100011.81;4844464;29;20048;-94
2023/08/15 00:51:24;;;;;;;;;;;;;;;19.29;81.04;100025.88;4860108;29;20083;-94
2023/08/15 00:53:51;;;;;;;31.90;14.75;;;;;;;19.08;80.86;100005.91;4853663;29;19939;-94
2023/08/15 00:56:18;;;;;;;28.42;13.20;;;;;;;18.87;81.29;99983.91;4822567;29;20529;-93
2023/08/15 00:58:47;;;;;;;22.25;13.02;;;;;;;18.75;81.35;99988.34;4867281;29;20044;-95
2023/08/15 01:01:21;;;;;;;27.40;13.23;;;;;;;18.60;81.64;99988.25;4927504;29;20049;-92
2023/08/15 01:03:51;;;;;;;24.77;12.48;;;;;;;18.61;82.11;100007.28;4878141;29;20051;-94
2023/08/15 01:06:17;;;;;;;25.33;11.73;;;;;;;18.49;81.93;99983.19;4896348;29;20515;-93
2023/08/15 01:08:43;;;;;;;37.70;13.13;;;;;;;18.53;81.83;99995.19;4879516;29;20047;-95
2023/08/15 01:11:10;;;;;;;47.03;26.50;;;;;;;18.62;81.97;100016.41;4878832;29;20135;-94
2023/08/15 01:14:03;;;;;;;33.08;19.08;;;;;;;18.44;82.17;99991.75;4906884;29;20135;-94
2023/08/15 01:16:36;;;;;;;30.42;18.33;;;;;;;18.23;82.21;99966.19;4858479;29;20464;-95
2023/08/15 01:19:10;;;;;;;24.15;14.25;;;;;;;18.63;82.41;100040.97;4874756;29;20064;-94
2023/08/15 01:21:43;;;;;;;27.23;12.40;;;;;;;18.48;82.70;100020.34;4870384;29;20064;-93
2023/08/15 01:24:10;;;;;;;24.60;12.27;;;;;;;18.51;82.91;100022.44;4883430;29;20076;-93
2023/08/15 01:26:37;;;;;;;24.38;12.95;;;;;;;18.51;82.84;100016.88;4908108;29;20040;-92
2023/08/15 01:29:04;;;;;;;25.35;12.00;;;;;;;18.27;82.84;99981.72;4862989;29;20048;-94
2023/08/15 01:31:37;;;;;;;22.50;11.38;;;;;;;18.44;83.01;100002.00;4909627;29;20071;-94
2023/08/15 01:34:28;;;;;;;20.15;11.73;;;;;;;18.33;82.98;99992.56;4880461;29;20039;-95
2023/08/15 01:37:03;;;;;;;24.27;11.13;;;;;;;18.60;83.33;100049.16;4879996;29;20139;-93
2023/08/15 01:39:31;;;;;;;25.85;11.45;;;;;;;18.43;82.92;100023.34;4878855;29;20067;-94
2023/08/15 01:41:59;;;;;;;27.42;11.23;;;;;;;18.31;83.24;100009.53;4894460;29;20050;-94
2023/08/15 01:44:29;;;;;;;25.63;10.68;;;;;;;18.26;83.51;100001.47;4879512;29;20510;-95
2023/08/15 01:46:56;;;;;;;18.90;10.48;;;;;;;18.26;83.92;100002.25;4879217;29;20493;-93
2023/08/15 01:49:24;;;;;;;18.98;11.40;;;;;;;18.12;83.42;99978.88;4893041;29;20078;-94
2023/08/15 01:51:51;;;;;;;24.83;10.77;;;;;;;18.23;83.64;99996.63;4878234;29;20048;-94
2023/08/15 01:54:16;;;;;;;;;;;;;;;18.47;83.61;100046.41;4875104;29;20051;-92
2023/08/15 01:56:46;;;;;;;15.48;9.98;;;;;;;18.43;84.00;100042.72;4890641;29;19923;-95
2023/08/15 01:59:12;;;;;;;22.80;10.52;;;;;;;18.25;84.32;100013.69;4869281;29;20040;-94
2023/08/15 02:01:38;;;;;;;;;;;;;;;18.46;84.47;100044.00;4894548;29;20047;-92
2023/08/15 02:04:04;;;;;;;17.97;10.67;;;;;;;18.22;84.42;100012.44;4912332;29;19979;-95
2023/08/15 02:06:32;;;;;;;18.33;10.50;;;;;;;18.40;84.16;100046.19;4895098;29;20063;-94
2023/08/15 02:08:58;;;;;;;21.00;11.53;;;;;;;18.23;83.89;100029.84;4926264;29;20040;-93
2023/08/15 02:11:24;;;;;;;22.83;11.30;;;;;;;17.97;83.54;99989.47;4895757;29;20071;-93
2023/08/15 02:13:50;;;;;;;20.25;13.55;;;;;;;18.18;83.96;100039.19;4879166;29;20052;-93
2023/08/15 02:16:17;;;;;;;28.63;13.00;;;;;;;18.26;83.97;100049.31;4894403;29;20075;-93
2023/08/15 02:18:43;;;;;;;32.50;12.75;;;;;;;17.99;83.96;99998.25;4910454;29;20047;-92
2023/08/15 02:21:09;;;;;;;21.57;12.60;;;;;;;18.14;84.21;100023.59;4910034;29;20048;-93
2023/08/15 02:23:35;;;;;;;23.77;12.47;;;;;;;17.93;84.28;99994.09;4909706;29;20055;-93
2023/08/15 02:26:02;;;;;;;28.38;10.82;;;;;;;18.21;84.10;100037.66;4893767;29;20125;-94
2023/08/15 02:28:31;;;;;;;20.92;12.70;;;;;;;18.22;84.21;100040.09;4878778;29;20044;-93
2023/08/15 02:30:57;;;;;;;28.50;12.75;;;;;;;18.02;84.56;100000.34;4880361;29;20044;-95
2023/08/15 02:33:23;;;;;;;22.30;12.20;;;;;;;18.15;84.50;100028.81;4880706;29;20062;-92
2023/08/15 02:35:51;;;;;;;30.77;12.90;;;;;;;18.04;84.80;100016.56;4883221;29;20352;-92
2023/08/15 02:38:17;;;;;;;23.90;12.80;;;;;;;17.83;84.62;99977.97;4892471;29;20024;-92
2023/08/15 02:40:43;;;;;;;33.25;13.68;;;;;;;18.10;84.89;100025.47;4907819;29;20047;-94
2023/08/15 02:43:12;;;;;;;30.73;12.70;;;;;;;18.24;84.64;100040.53;4907922;29;20056;-94
2023/08/15 02:45:37;;;;;;;28.73;13.23;;;;;;;18.12;84.94;100039.75;4888407;29;20541;-93
2023/08/15 02:48:05;;;;;;;30.55;12.93;;;;;;;18.00;85.01;100013.69;4896712;29;20080;-94
2023/08/15 02:50:32;;;;;;;23.40;13.23;;;;;;;17.98;85.03;99998.59;4928130;29;20044;-93
2023/08/15 02:52:59;;;;;;;29.35;12.75;;;;;;;18.46;84.88;100061.41;4896445;29;20048;-94
2023/08/15 02:55:26;;;;;;;26.98;12.90;;;;;;;18.21;85.43;100012.75;4878952;29;20079;-95
2023/08/15 02:57:52;;;;;;;33.75;12.73;;;;;;;18.31;84.98;100010.34;4926335;29;20071;-94
2023/08/15 03:00:20;;;;;;;24.13;12.70;;;;;;;18.34;84.71;100014.34;4865680;29;20059;-93
2023/08/15 03:02:47;;;;;;;25.17;12.45;;;;;;;18.42;84.08;100018.19;4898512;29;20047;-93
2023/08/15 03:05:13;;;;;;;34.78;12.38;;;;;;;18.56;84.03;100024.13;4883298;29;20069;-93
2023/08/15 03:07:39;;;;;;;26.50;12.43;;;;;;;18.42;84.43;100009.88;4906845;29;20051;-95
2023/08/15 03:10:06;;;;;;;25.03;12.90;;;;;;;18.74;84.51;100055.16;4890928;29;20040;-93
2023/08/15 03:12:32;;;;;;;27.45;13.75;;;;;;;18.81;84.77;100060.94;4879257;29;20433;-93
2023/08/15 03:15:00;;;;;;;32.55;13.50;;;;;;;18.84;84.63;100065.78;4890965;29;20052;-93
2023/08/15 03:17:27;;;;;;;33.38;13.50;;;;;;;18.61;84.75;100020.31;4876039;29;20060;-93
2023/08/15 03:19:54;;;;;;;23.75;13.73;;;;;;;18.66;84.70;100025.63;4894677;29;20044;-95
2023/08/15 03:22:21;;;;;;;28.00;12.98;;;;;;;18.96;84.93;100062.94;4895320;29;20056;-92
2023/08/15 03:24:47;;;;;;;33.80;14.73;;;;;;;18.98;84.70;100057.88;4899132;29;20119;-93
2023/08/15 03:27:13;;;;;;;27.20;13.20;;;;;;;19.07;84.96;100068.00;4866579;29;20048;-94
2023/08/15 03:29:40;;;;;;;;;;;;;;;19.13;84.76;100066.59;4899310;29;20301;-93
2023/08/15 03:32:06;;;;;;;;;;;;;;;19.17;84.43;100064.72;4899401;29;19934;-93
2023/08/15 03:34:35;;;;;;;25.13;12.15;;;;;;;18.91;84.14;100020.84;4913894;29;19923;-94
2023/08/15 03:37:02;;;;;;;22.15;11.20;;;;;;;18.96;84.46;100024.16;4901137;29;20103;-93
2023/08/15 03:39:32;;;;;;;;;;;;;;;19.32;84.46;100075.06;4903608;29;20063;-95
2023/08/15 03:42:02;;;;;;;25.30;11.98;;;;;;;19.06;84.76;100028.41;4889217;29;19926;-93
2023/08/15 03:44:32;;;;;;;29.30;13.02;;;;;;;19.23;84.84;100046.69;4906599;29;20096;-94
2023/08/15 03:47:41;;;;;;;34.47;13.98;;;;;;;19.46;84.56;100069.91;4921887;29;20048;-94
2023/08/15 03:50:10;;;;;;;34.95;13.90;;;;;;;19.05;84.09;99992.75;4904666;29;20093;-93
2023/08/15 03:52:45;;;;;;;26.02;12.38;;;;;;;19.26;84.05;100015.50;4922045;29;20100;-94
2023/08/15 03:55:17;;;;;;;39.28;13.73;;;;;;;19.52;83.59;100050.25;4921869;29;20052;-94
2023/08/15 03:57:46;;;;;;;38.75;13.98;;;;;;;19.33;83.54;100010.13;4920377;29;20048;-93
2023/08/15 04:31:43;;;;;;;27.10;11.07;;;;;;;20.74;76.67;100049.31;4939190;29;19926;-93
2023/08/15 04:34:16;;;;;;;41.10;11.52;;;;;;;20.70;77.21;100036.53;4892364;29;20048;-95
2023/08/15 04:40:55;;;;;;;27.25;10.15;;;;;;;20.92;75.04;100046.91;5165095;23;20102;-94
2023/08/15 04:43:44;;;;;;;14.90;7.83;;;;;;;21.02;71.37;100053.88;4940829;29;20048;-92
2023/08/15 04:46:22;;;;;;;15.00;7.30;;;;;;;21.09;71.13;100049.28;4925520;29;20152;-93
2023/08/15 04:48:53;;;;;;;19.80;7.47;;;;;;;21.16;70.57;100053.34;4893598;29;20028;-94
2023/08/15 04:51:19;;;;;;;18.17;7.88;;;;;;;21.52;70.72;100096.63;4927004;29;20346;-95
2023/08/15 04:53:56;;;;;;;26.98;8.27;;;;;;;21.44;70.57;100067.88;4920231;29;20076;-91
2023/08/15 04:56:24;;;;;;;17.52;7.30;;;;;;;21.55;70.41;100068.88;4922503;29;20431;-91
2023/08/15 04:58:50;;;;;;;23.52;7.32;;;;;;;21.58;69.78;100058.97;4900969;29;20040;-91
2023/08/15 05:01:20;;;;;;;9.93;6.40;;;;;;;21.64;69.63;100051.16;4932995;29;20039;-90
2023/08/15 05:03:47;;;;;;;15.18;6.88;;;;;;;21.62;71.26;100037.59;4903756;29;20112;-92
2023/08/15 05:06:18;;;;;;;26.17;8.00;;;;;;;21.87;68.69;100065.06;4891266;29;20044;-92
2023/08/15 05:08:44;;;;;;;13.75;6.60;;;;;;;21.81;68.10;100033.94;4905753;29;20055;-93
2023/08/15 05:11:14;;;;;;;16.50;7.15;;;;;;;21.92;68.23;100050.84;4910816;29;20040;-92
2023/08/15 05:13:41;;;;;;;12.70;6.68;;;;;;;22.10;69.25;100065.06;4923507;29;20095;-92
2023/08/15 05:16:08;;;;;;;13.98;6.80;;;;;;;22.41;68.88;100097.41;4915050;29;20032;-93
2023/08/15 05:18:42;;;;;;;18.20;7.10;;;;;;;22.32;67.36;100080.97;4897721;29;20032;-93
2023/08/15 05:21:09;;;;;;;8.55;6.55;;;;;;;22.35;67.74;100073.84;4910734;29;20047;-93
2023/08/15 05:23:36;;;;;;;16.95;6.82;;;;;;;22.62;66.43;100099.75;4920939;29;20135;-94
2023/08/15 05:26:03;;;;;;;17.42;7.22;;;;;;;22.68;66.00;100101.00;4905264;29;20048;-94
2023/08/15 05:28:33;;;;;;;24.15;7.78;;;;;;;22.61;64.96;100098.91;4920598;29;20048;-93
2023/08/15 05:31:01;;;;;;;23.42;7.30;;;;;;;22.79;66.54;100103.97;4904015;29;20088;-93
2023/08/15 05:33:37;;;;;;;16.35;6.95;;;;;;;22.65;66.15;100054.38;4890601;29;20020;-94
2023/08/15 05:36:06;;;;;;;11.73;6.40;;;;;;;23.11;66.20;100101.63;4889709;29;20044;-96
2023/08/15 05:38:37;;;;;;;15.20;6.22;;;;;;;23.11;64.09;100105.25;4890272;29;20052;-92
2023/08/15 05:41:04;;;;;;;12.48;6.72;;;;;;;22.96;63.43;100093.09;4905393;29;20478;-92
2023/08/15 05:43:32;;;;;;;13.70;6.15;;;;;;;22.81;63.99;100079.28;4919049;29;20059;-92
2023/08/15 05:45:58;;;;;;;16.02;5.63;;;;;;;22.84;63.77;100079.34;4919373;29;20059;-90
2023/08/15 05:48:30;;;;;;;12.63;6.15;;;;;;;22.77;62.59;100078.44;4891343;29;20031;-91
2023/08/15 05:56:41;;;;;;;10.15;5.78;;;;;;;22.86;62.77;100073.41;4895806;29;20093;-91
2023/08/15 05:59:10;;;;;;;15.75;6.28;;;;;;;22.85;61.09;100057.88;4895355;29;20116;-92
2023/08/15 06:01:41;;;;;;;18.25;7.03;;;;;;;22.99;61.82;100072.03;4864131;29;20077;-91
2023/08/15 06:04:07;;;;;;;16.30;6.00;;;;;;;23.08;62.81;100078.13;4877517;29;20044;-91
2023/08/15 06:06:39;;;;;;;11.85;6.18;;;;;;;23.15;62.51;100077.41;4934243;23;20036;-92
2023/08/15 06:09:13;;;;;;;11.68;5.88;;;;;;;23.27;61.24;100085.50;4904500;29;20090;-92
2023/08/15 06:11:42;;;;;;;17.20;5.97;;;;;;;23.30;61.33;100073.59;4920868;29;20031;-91
2023/08/15 06:14:28;;;;;;;15.82;5.88;;;;;;;23.41;59.61;100096.03;4921983;29;20063;-91
2023/08/15 06:16:59;;;;;;;10.65;5.25;;;;;;;23.16;60.19;100060.28;4906902;29;20103;-90
2023/08/15 06:19:27;;;;;;;8.68;5.63;;;;;;;23.29;58.48;100083.16;4907216;29;20080;-92
2023/08/15 06:21:59;;;;;;;11.63;6.10;;;;;;;23.31;59.23;100082.75;4907074;29;20064;-91
2023/08/15 06:24:29;;;;;;;9.35;6.03;;;;;;;23.38;59.08;100086.44;4888503;29;20111;-93
2023/08/15 06:27:03;;;;;;;11.45;5.85;;;;;;;23.60;59.81;100107.00;4887780;29;20092;-92
2023/08/15 06:29:58;;;;;;;12.85;5.80;;;;;;;23.24;58.97;100040.84;5101498;23;20060;-94
2023/08/15 06:38:11;;;;;;;17.83;6.35;;;;;;;23.76;60.54;100101.25;4933897;29;19926;-93
2023/08/15 06:41:08;;;;;;;10.27;6.05;;;;;;;23.51;59.86;100063.84;4912489;29;20039;-92
2023/08/15 06:44:09;;;;;;;20.40;6.57;;;;;;;23.57;60.47;100077.06;4883318;29;20061;-94
2023/08/15 06:46:54;;;;;;;17.25;5.95;;;;;;;23.58;59.14;100066.75;4858670;29;20091;-93
2023/08/15 06:49:23;;;;;;;11.85;6.13;;;;;;;23.73;58.20;100090.84;4864208;29;20049;-93
2023/08/15 06:52:03;;;;;;;22.65;7.85;;;;;;;23.72;57.77;100082.84;4865693;29;20072;-93
2023/08/15 06:54:31;;;;;;;32.33;8.30;;;;;;;23.63;57.36;100061.59;4861302;23;20044;-91
2023/08/15 06:57:26;;;;;;;38.83;7.28;;;;;;;23.86;58.84;100078.19;4919933;23;20061;-94
2023/08/15 06:59:53;;;;;;;11.55;6.05;;;;;;;23.94;59.02;100087.47;4887607;29;20064;-93
2023/08/15 07:02:43;;;;;;;10.23;5.80;;;;;;;23.84;58.21;100085.34;4889615;29;20075;-92
2023/08/15 07:05:15;;;;;;;15.50;6.53;;;;;;;23.90;58.12;100078.22;4921240;29;20049;-92
2023/08/15 07:12:33;;;;;;;14.15;5.65;;;;;;;24.19;57.43;100103.63;4892753;29;20021;-92
2023/08/15 07:15:03;;;;;;;15.75;5.88;;;;;;;23.95;58.44;100049.97;4935222;23;20052;-93
2023/08/15 07:18:32;;;;;;;10.45;5.88;;;;;;;24.43;57.56;100105.84;4924801;29;20042;-93
2023/08/15 07:21:52;;;;;;;19.60;6.38;;;;;;;24.47;57.31;100105.88;4915491;29;20056;-93
2023/08/15 07:24:21;;;;;;;13.27;5.63;;;;;;;24.12;58.10;100054.09;4922280;29;20028;-94
2023/08/15 07:26:57;;;;;;;14.02;6.13;;;;;;;24.24;57.31;100073.34;4908443;29;20040;-95
2023/08/15 07:30:17;;;;;;;10.13;6.00;;;;;;;24.60;56.13;100121.97;4888495;29;20071;-95
2023/08/15 07:36:08;;;;;;;12.00;5.90;;;;;;;24.63;55.60;100091.63;5188270;23;20962;-91
2023/08/15 07:38:35;;;;;;;15.15;6.32;;;;;;;24.69;55.68;100088.06;4914858;29;20043;-88
2023/08/15 07:41:03;;;;;;;12.88;6.72;;;;;;;24.73;55.80;100080.50;4940100;29;20028;-89
2023/08/15 07:43:36;;;;;;;12.75;5.68;;;;;;;24.89;55.81;100121.34;4938037;29;20138;-91
2023/08/15 07:46:23;;;;;;;20.13;6.25;;;;;;;24.87;57.25;100099.38;4919854;29;20032;-88
2023/08/15 07:48:50;;;;;;;13.65;5.93;;;;;;;25.04;56.81;100112.66;4946958;29;20039;-87
2023/08/15 07:51:17;;;;;;;12.73;5.65;;;;;;;25.15;55.78;100106.31;4913061;29;20514;-91
2023/08/15 07:53:43;;;;;;;18.50;6.50;;;;;;;25.19;56.59;100093.16;4911853;29;20735;-91
2023/08/15 07:56:09;;;;;;;11.27;6.30;;;;;;;25.13;54.12;100089.13;4915052;29;20040;-94
2023/08/15 07:58:37;;;;;;;14.05;6.13;;;;;;;25.36;54.85;100103.59;4925671;29;20051;-93
2023/08/15 08:01:06;;;;;;;12.80;6.03;;;;;;;25.33;54.19;100093.22;4921865;29;20580;-92
2023/08/15 09:32:45;;;;;;;19.30;7.03;;;;;;;26.31;51.29;100078.19;4940421;29;20074;-89
2023/08/15 09:35:14;;;;;;;12.88;6.65;;;;;;;26.36;53.38;100081.41;4919672;29;20131;-89
2023/08/15 09:37:42;;;;;;;20.45;6.78;;;;;;;26.38;51.08;100081.78;4930011;29;20043;-86
2023/08/15 09:40:30;;;;;;;17.83;6.90;;;;;;;26.46;51.68;100089.00;4941888;29;20048;-87
2023/08/15 09:43:03;;;;;;;16.15;7.30;;;;;;;26.50;52.34;100091.81;4928535;29;20126;-88
2023/08/15 09:45:29;;;;;;;15.20;6.93;;;;;;;26.50;52.20;100096.63;4929242;29;20227;-92
2023/08/15 09:47:57;;;;;;;11.77;7.00;;;;;;;26.36;51.60;100072.97;4941088;29;20673;-89
2023/08/15 09:50:31;;;;;;;12.95;6.88;;;;;;;26.43;50.41;100084.19;4908909;29;20067;-87
2023/08/15 09:53:03;;;;;;;14.85;6.28;;;;;;;26.66;51.24;100103.41;4886720;29;20101;-86
2023/08/15 09:55:33;;;;;;;10.80;6.10;;;;;;;26.56;50.21;100047.34;4916589;29;20043;-89
2023/08/15 09:58:00;;;;;;;15.63;6.82;;;;;;;26.91;50.28;100097.72;4938147;29;20188;-92
2023/08/15 10:00:39;;;;;;;10.13;6.07;;;;;;;26.70;50.31;100062.13;4923011;29;20050;-92
2023/08/15 10:03:06;;;;;;;13.85;7.25;;;;;;;26.96;50.86;100084.50;4913224;29;20059;-87
2023/08/15 10:05:39;;;;;;;11.20;7.10;;;;;;;27.14;50.10;100076.84;4930792;29;20603;-87
2023/08/15 10:08:08;;;;;;;12.02;6.20;;;;;;;27.11;49.77;100081.22;4908221;29;20036;-88
2023/08/15 10:10:39;;;;;;;8.00;6.57;;;;;;;27.12;48.53;100082.06;4926973;29;20043;-89
2023/08/15 10:13:13;;;;;;;8.20;6.05;;;;;;;26.92;48.17;100042.41;4909720;29;20409;-88
2023/08/15 10:15:42;;;;;;;18.52;7.68;;;;;;;27.25;49.13;100080.44;4921902;29;20039;-87
2023/08/15 10:18:09;;;;;;;9.20;6.18;;;;;;;27.35;49.06;100065.53;4931655;29;20043;-88
2023/08/15 10:20:41;;;;;;;10.05;6.35;;;;;;;27.32;47.76;100071.16;4923570;29;20628;-88
2023/08/15 10:23:09;;;;;;;10.82;6.93;;;;;;;27.05;48.38;100037.97;4925218;29;20466;-87
2023/08/15 10:25:48;;;;;;;10.38;7.07;;;;;;;27.35;50.10;100076.75;4924990;29;20044;-88
2023/08/15 10:28:20;;;;;;;29.90;8.27;;;;;;;27.23;49.92;100026.69;4930942;29;20112;-87
2023/08/15 10:30:50;;;;;;;11.85;6.65;;;;;;;27.08;48.21;100070.00;4952249;29;20054;-88
2023/08/15 10:33:23;;;;;;;18.30;7.28;;;;;;;26.89;49.31;100077.72;4901216;29;20107;-87
2023/08/15 10:36:02;;;;;;;14.55;7.70;;;;;;;26.70;49.61;100075.34;5111175;23;20119;-88
2023/08/15 10:38:31;;;;;;;16.75;7.30;;;;;;;26.58;50.81;100072.97;4906822;29;20056;-87
2023/08/15 10:41:03;;;;;;;20.15;6.78;;;;;;;26.50;50.28;100077.81;4907745;29;20398;-88
2023/08/15 10:43:59;;;;;;;19.92;7.80;;;;;;;26.26;51.34;100059.78;4903035;29;20083;-88
2023/08/15 10:46:46;;;;;;;24.10;7.03;;;;;;;26.17;51.82;100070.59;4896859;29;20025;-91
2023/08/15 10:49:19;;;;;;;15.55;7.30;;;;;;;26.29;52.22;100067.38;4911303;29;20045;-88
2023/08/15 10:52:08;;;;;;;12.48;7.35;;;;;;;26.22;51.55;100044.94;4916358;29;20025;-88
2023/08/15 10:55:34;;;;;;;20.55;7.43;;;;;;;26.90;52.56;100076.50;4913973;29;20452;-87
2023/08/15 10:58:24;;;;;;;11.65;7.25;;;;;;;26.88;50.56;100047.25;4858475;29;20086;-94
2023/08/15 11:01:17;;;;;;;20.50;7.50;;;;;;;27.05;53.09;100065.22;4870999;29;20026;-91
2023/08/15 11:03:57;;;;;;;22.42;8.35;;;;;;;26.97;51.40;100050.41;4865574;29;20061;-86
2023/08/15 11:06:48;;;;;;;15.00;7.53;;;;;;;26.82;51.11;100058.09;4849923;29;20078;-91
2023/08/15 11:09:42;;;;;;;18.38;7.60;;;;;;;26.56;52.33;100055.78;4729375;30;20098;-88
2023/08/15 11:12:10;;;;;;;17.95;7.50;;;;;;;26.59;52.95;100055.75;4756224;30;20052;-88
2023/08/15 11:14:41;;;;;;;16.48;6.80;;;;;;;26.69;50.97;100057.72;4766295;30;20117;-89
2023/08/15 11:17:07;;;;;;;14.40;7.03;;;;;;;26.81;52.42;100042.47;4779422;29;20024;-88
2023/08/15 11:19:36;;;;;;;8.60;6.40;;;;;;;27.10;49.64;100053.59;4770198;30;20056;-86
2023/08/15 11:22:04;;;;;;;15.65;5.93;;;;;;;26.96;48.25;100023.56;4759953;30;20060;-87
2023/08/15 11:24:32;;;;;;;15.82;6.10;;;;;;;27.19;48.96;100045.56;4746928;30;20060;-86
2023/08/15 11:27:01;;;;;;;12.43;6.28;;;;;;;27.22;48.44;100029.88;4754568;30;20052;-86
2023/08/15 11:29:27;;;;;;;14.40;6.82;;;;;;;27.37;48.29;100057.47;4755490;30;20056;-86
2023/08/15 11:32:00;;;;;;;11.93;6.88;;;;;;;27.62;48.52;100053.75;4745656;30;20044;-93
2023/08/15 11:34:47;;;;;;;13.82;7.45;;;;;;;27.62;49.32;100053.75;4754132;30;20051;-92
2023/08/15 11:37:14;;;;;;;15.23;7.07;;;;;;;27.63;48.79;100047.69;4795017;29;20597;-88
2023/08/15 11:39:42;;;;;;;34.33;7.07;;;;;;;27.53;49.08;100051.38;4811427;29;20067;-87
2023/08/15 11:42:09;;;;;;;14.48;6.68;;;;;;;27.10;48.71;100022.72;4796542;29;20050;-87
2023/08/15 11:45:15;;;;;;;18.33;6.72;;;;;;;27.11;48.66;100052.38;4782414;30;20056;-89
2023/08/15 11:48:15;;;;;;;13.38;5.97;;;;;;;26.75;46.08;100018.03;4855197;29;20045;-90
2023/08/15 11:50:41;;;;;;;18.55;6.80;;;;;;;26.83;46.58;100003.59;4870623;29;20041;-90
2023/08/15 11:53:14;;;;;;;16.52;6.47;;;;;;;27.08;46.69;100011.88;4865838;29;20045;-91
2023/08/15 11:55:43;;;;;;;15.93;6.53;;;;;;;27.27;45.29;100035.88;4891038;29;20496;-88
2023/08/15 11:58:30;;;;;;;11.15;6.35;;;;;;;27.25;45.80;100026.25;4864970;29;20056;-89
2023/08/15 12:01:11;;;;;;;13.43;5.97;;;;;;;27.35;46.60;100003.75;4868412;29;20061;-89
2023/08/15 12:03:55;;;;;;;36.03;8.48;;;;;;;27.87;45.96;100043.13;4880912;29;20113;-93
2023/08/15 12:06:42;;;;;;;20.40;6.57;;;;;;;27.61;44.81;99985.50;4872721;29;20415;-91
2023/08/15 12:09:15;;;;;;;20.33;6.25;;;;;;;27.91;43.05;100017.03;4818216;29;20047;-91
2023/08/15 12:11:45;;;;;;;10.32;5.15;;;;;;;27.95;43.19;100012.19;4833378;29;20150;-90
2023/08/15 12:14:20;;;;;;;11.20;4.93;;;;;;;28.18;42.36;100043.31;4833882;29;20054;-94
2023/08/15 12:16:47;;;;;;;13.23;5.47;;;;;;;28.10;42.62;100019.25;4836522;29;20070;-90
2023/08/15 12:19:18;;;;;;;39.78;7.47;;;;;;;28.18;42.51;100003.94;4841055;29;20307;-90
2023/08/15 12:21:44;;;;;;;14.60;5.60;;;;;;;28.44;42.46;100027.00;4792821;29;20064;-89
2023/08/15 12:24:21;;;;;;;12.60;6.05;;;;;;;28.65;41.43;100032.41;4840770;29;20027;-89
2023/08/15 12:26:55;;;;;;;14.13;5.30;;;;;;;28.70;42.87;100042.41;4831215;23;20033;-90
2023/08/15 12:33:34;;;;;;;21.40;6.38;;;;;;;28.41;40.78;100053.97;4935335;29;20047;-90
2023/08/15 12:36:05;;;;;;;41.08;7.18;;;;;;;28.24;41.06;100032.38;4959022;23;20071;-89
2023/08/15 12:38:31;;;;;;;17.73;6.05;;;;;;;28.10;42.12;100008.81;4916462;29;20099;-90
2023/08/15 12:40:57;;;;;;;28.00;6.15;;;;;;;28.34;41.57;100054.81;4927476;29;20040;-91
2023/08/15 12:43:46;;;;;;;17.45;6.03;;;;;;;27.75;40.73;100003.47;4888054;29;20057;-90
2023/08/15 12:50:00;;;;;;;27.48;5.65;;;;;;;27.63;40.50;99969.03;4876313;29;20100;-91
2023/08/15 12:53:12;;;;;;;18.30;5.45;;;;;;;28.02;40.52;100017.75;4866915;29;20045;-93
2023/08/15 12:55:54;;;;;;;25.30;5.40;;;;;;;28.17;38.26;100027.63;4854777;29;20045;-94
2023/08/15 12:58:21;;;;;;;20.27;5.38;;;;;;;28.31;40.57;100050.00;4933715;23;20043;-91
2023/08/15 13:00:50;;;;;;;15.82;5.00;;;;;;;28.08;37.73;100027.34;4934097;29;20116;-91
2023/08/15 13:03:20;;;;;;;35.53;5.50;;;;;;;27.82;38.21;99992.22;5255371;23;20068;-93
2023/08/15 13:23:02;;;;;;;44.42;7.93;;;;;;;28.39;40.13;100053.56;4902846;29;20048;-94
2023/08/15 13:25:30;;;;;;;20.52;5.28;;;;;;;28.04;38.80;99992.81;4899765;29;20053;-93
2023/08/15 13:28:19;;;;;;;18.95;5.45;;;;;;;28.18;38.61;100029.25;4891878;29;20075;-92
2023/08/15 13:31:19;;;;;;;18.52;5.88;;;;;;;28.18;39.88;100020.81;4882527;29;20112;-92
2023/08/15 13:34:12;;;;;;;15.73;6.78;;;;;;;28.05;41.15;99997.25;4861028;29;20207;-94
2023/08/15 13:40:31;;;;;;;17.48;5.28;;;;;;;27.70;39.41;100001.09;5037358;23;20048;-94
2023/08/15 13:49:13;;;;;;;17.70;5.50;;;;;;;27.91;41.00;100014.22;5749074;23;20099;-94
2023/08/15 13:57:56;;;;;;;12.20;4.45;;;;;;;27.59;38.24;100063.78;5112303;23;20056;-93
2023/08/15 14:00:25;;;;;;;12.93;4.05;;;;;;;27.32;38.85;100054.31;4917908;29;20042;-93
2023/08/15 14:03:40;;;;;;;;;;;;;;;;;;;;;
2023/08/15 14:11:51;;;;;;;11.15;4.18;;;;;;;27.21;39.02;100054.34;4860720;29;20151;-92
2023/08/15 14:14:50;;;;;;;15.27;4.20;;;;;;;27.04;39.01;100044.78;4927999;23;20069;-94
2023/08/15 14:22:33;;;;;;;15.95;4.32;;;;;;;27.03;40.81;100082.47;4918426;23;20067;-93
2023/08/15 14:25:27;;;;;;;22.88;3.88;;;;;;;26.86;39.54;100083.34;4885807;29;20100;-95
2023/08/15 14:28:35;;;;;;;26.95;4.43;;;;;;;26.76;41.24;100064.53;4884381;29;20039;-96
2023/08/15 14:31:44;;;;;;;;;;;;;;;;;;;;;
2023/08/15 15:07:00;;;;;;;8.45;3.58;;;;;;;26.71;38.50;100015.25;4918559;29;20025;-95
2023/08/15 15:10:05;;;;;;;26.30;4.85;;;;;;;26.97;39.20;100072.06;4847138;29;20053;-94
2023/08/15 15:13:00;;;;;;;11.40;4.10;;;;;;;27.03;39.15;100073.25;4844745;29;20058;-96
2023/08/15 15:16:07;;;;;;;19.50;4.13;;;;;;;26.82;39.59;100046.88;4846818;29;20027;-93
2023/08/15 15:32:46;;;;;;;19.67;3.83;;;;;;;26.38;40.17;100120.22;4764409;30;21320;-96
2023/08/15 15:35:17;;;;;;;17.77;3.80;;;;;;;26.01;40.74;100118.59;4801716;29;20663;-85
2023/08/15 15:37:46;;;;;;;11.52;4.10;;;;;;;26.01;40.77;100105.41;4819721;29;20054;-91
2023/08/15 15:40:21;;;;;;;10.73;4.47;;;;;;;26.15;40.80;100124.22;4806734;29;20053;-90
2023/08/15 15:42:49;;;;;;;9.77;3.53;;;;;;;25.65;41.41;100078.50;4820823;29;20070;-92
2023/08/15 15:45:15;;;;;;;7.95;3.47;;;;;;;25.51;41.17;100088.47;4796080;29;20517;-91
2023/08/15 15:47:41;;;;;;;11.55;3.35;;;;;;;25.22;41.34;100076.38;4797219;29;20057;-91
2023/08/15 15:50:08;;;;;;;17.60;3.30;;;;;;;25.20;41.37;100069.56;4798861;29;20707;-90
2023/08/15 15:52:33;;;;;;;;;;;;;;;25.52;41.40;100143.25;4797180;29;20050;-91